Terminal Aerodrome Forecast
Issued by NWS

Home | Current Version | Previous Version | Text Only | Print | Product List | Glossary On
Versions: 1 2 3 4 5 6 7 8 9 10 11 12 13 14 15 16 17 18
000
FTUS43 KJKL 292153 AAA
TAFSME
TAF AMD
KSME 292153Z 2922/3018 30006KT P6SM BKN250
     FM300000 35004KT P6SM FEW080 BKN250
     FM301000 05003KT 6SM BR VCSH BKN070
     FM301200 05005KT 5SM -SHRA BR BKN050=

USA.gov is the U.S. government's official web portal to all federal, state and local government web resources and services.